createdAt,value
2019-03-09T00:01:57.117Z,0.93
2019-03-09T00:04:25.494Z,2.03
2019-03-09T00:06:53.890Z,0.90
2019-03-09T00:09:22.564Z,1.43
2019-03-09T00:11:51.295Z,0.83
2019-03-09T00:14:19.753Z,1.00
2019-03-09T00:16:48.002Z,1.33
2019-03-09T00:19:16.121Z,2.00
2019-03-09T00:21:44.485Z,0.93
2019-03-09T00:24:32.269Z,1.17
2019-03-09T00:27:29.222Z,1.73
2019-03-09T00:30:09.265Z,1.10
2019-03-09T00:32:37.495Z,1.13
2019-03-09T00:35:05.363Z,1.07
2019-03-09T00:37:33.409Z,1.03
2019-03-09T00:40:01.465Z,1.03
2019-03-09T00:42:29.874Z,3.10
2019-03-09T00:44:57.731Z,2.63
2019-03-09T00:47:26.284Z,2.30
2019-03-09T00:49:54.785Z,1.87
2019-03-09T00:52:25.919Z,1.90
2019-03-09T00:54:54.005Z,1.30
2019-03-09T00:57:22.643Z,1.50
2019-03-09T00:59:55.983Z,1.17
2019-03-09T01:02:24.421Z,1.13
2019-03-09T01:04:52.557Z,1.13
2019-03-09T01:07:21.448Z,1.30
2019-03-09T01:09:50.114Z,1.10
2019-03-09T01:12:18.199Z,1.13
2019-03-09T01:14:46.548Z,1.30
2019-03-09T01:17:15.160Z,1.30
2019-03-09T01:19:43.462Z,1.00
2019-03-09T01:22:11.496Z,0.90
2019-03-09T01:24:39.766Z,0.90
2019-03-09T01:27:07.857Z,2.20
2019-03-09T01:29:36.478Z,1.27
2019-03-09T01:32:05.508Z,1.40
2019-03-09T01:34:33.375Z,1.33
2019-03-09T01:37:01.940Z,1.50
2019-03-09T01:39:29.829Z,1.23
2019-03-09T01:41:58.213Z,1.40
2019-03-09T01:44:26.494Z,1.63
2019-03-09T01:46:54.577Z,1.20
2019-03-09T01:49:22.963Z,1.10
2019-03-09T01:51:51.324Z,1.27
2019-03-09T01:54:19.407Z,1.30
2019-03-09T01:56:47.847Z,1.33
2019-03-09T01:59:16.128Z,1.67
2019-03-09T02:01:44.563Z,1.77
2019-03-09T02:04:12.615Z,1.73
2019-03-09T02:06:41.386Z,1.30
2019-03-09T02:09:09.472Z,1.67
2019-03-09T02:11:38.076Z,1.00
2019-03-09T02:14:06.360Z,1.20
2019-03-09T02:16:34.549Z,1.10
2019-03-09T02:19:02.878Z,1.50
2019-03-09T02:21:31.070Z,1.60
2019-03-09T02:23:59.006Z,1.53
2019-03-09T02:26:27.715Z,2.00
2019-03-09T02:28:55.790Z,1.70
2019-03-09T02:31:25.684Z,1.20
2019-03-09T02:33:54.368Z,1.90
2019-03-09T02:36:22.942Z,1.43
2019-03-09T02:38:58.192Z,1.40
2019-03-09T02:41:26.573Z,1.17
2019-03-09T02:43:54.954Z,1.73
2019-03-09T02:46:23.058Z,1.30
2019-03-09T02:48:51.676Z,1.30
2019-03-09T02:51:20.718Z,1.33
2019-03-09T02:53:48.854Z,2.00
2019-03-09T02:56:17.174Z,1.20
2019-03-09T02:58:45.552Z,1.40
2019-03-09T03:01:28.827Z,1.97
2019-03-09T03:03:56.742Z,1.70
2019-03-09T03:06:25.376Z,1.67
2019-03-09T03:08:53.514Z,1.90
2019-03-09T03:11:21.883Z,1.60
2019-03-09T03:13:49.931Z,1.50
2019-03-09T03:16:18.120Z,1.37
2019-03-09T03:18:46.076Z,1.47
2019-03-09T03:21:14.245Z,1.70
2019-03-09T03:23:42.221Z,1.67
2019-03-09T03:26:10.705Z,1.90
2019-03-09T03:28:39.545Z,1.60
2019-03-09T03:31:08.062Z,1.10
2019-03-09T03:33:36.076Z,1.50
2019-03-09T03:36:04.639Z,1.53
2019-03-09T03:38:33.152Z,1.30
2019-03-09T03:41:01.768Z,1.27
2019-03-09T03:43:29.899Z,1.30
2019-03-09T03:45:58.526Z,1.30
2019-03-09T03:48:26.634Z,1.47
2019-03-09T03:50:55.041Z,1.13
2019-03-09T03:53:23.651Z,1.23
2019-03-09T03:55:52.794Z,1.43
2019-03-09T03:58:20.808Z,1.67
2019-03-09T04:00:49.404Z,1.10
2019-03-09T04:03:18.169Z,1.53
2019-03-09T04:05:47.013Z,1.30
2019-03-09T04:08:15.764Z,1.10
2019-03-09T04:10:44.187Z,2.17
2019-03-09T04:13:13.171Z,1.10
2019-03-09T04:15:41.729Z,1.10
2019-03-09T04:18:10.249Z,1.20
2019-03-09T04:20:38.415Z,1.50
2019-03-09T04:23:07.054Z,1.40
2019-03-09T04:25:35.423Z,1.10
2019-03-09T04:28:22.994Z,1.30
2019-03-09T04:31:11.114Z,1.63
2019-03-09T04:33:53.482Z,1.07
2019-03-09T04:37:00.908Z,1.13
2019-03-09T04:40:16.040Z,1.23
2019-03-09T04:43:17.338Z,1.13
2019-03-09T04:46:16.674Z,0.90
2019-03-09T04:49:04.360Z,1.03
2019-03-09T04:51:51.926Z,0.97
2019-03-09T04:54:30.342Z,1.10
2019-03-09T04:57:10.816Z,1.70
2019-03-09T04:59:48.446Z,1.30
2019-03-09T05:02:31.531Z,1.00
2019-03-09T05:05:17.209Z,1.73
2019-03-09T05:08:20.002Z,1.10
2019-03-09T05:11:13.688Z,0.70
2019-03-09T05:14:03.667Z,0.80
2019-03-09T05:16:32.180Z,1.00
2019-03-09T05:19:03.784Z,0.70
2019-03-09T05:21:31.867Z,1.10
2019-03-09T05:24:00.677Z,1.00
2019-03-09T05:26:29.515Z,1.17
2019-03-09T05:28:58.278Z,1.07
2019-03-09T05:31:26.803Z,0.90
2019-03-09T05:33:55.975Z,1.10
2019-03-09T05:36:23.794Z,0.87
2019-03-09T05:38:53.034Z,1.07
2019-03-09T05:41:26.751Z,1.30
2019-03-09T05:43:56.066Z,1.13
2019-03-09T05:46:24.177Z,2.10
2019-03-09T05:48:53.164Z,1.10
2019-03-09T05:51:21.649Z,1.00
2019-03-09T05:53:50.747Z,1.03
2019-03-09T05:56:18.975Z,1.53
2019-03-09T05:58:47.050Z,1.93
2019-03-09T06:01:15.706Z,1.40
2019-03-09T06:03:43.815Z,1.00
2019-03-09T06:06:14.066Z,1.50
2019-03-09T06:08:42.704Z,1.50
2019-03-09T06:11:10.591Z,1.27
2019-03-09T06:13:38.690Z,0.97
2019-03-09T06:16:06.406Z,1.30
2019-03-09T06:18:34.135Z,1.60
2019-03-09T06:21:02.313Z,0.97
2019-03-09T06:23:30.144Z,1.00
2019-03-09T06:25:58.154Z,1.00
2019-03-09T06:28:26.581Z,1.30
2019-03-09T06:30:54.274Z,1.13
2019-03-09T06:33:48.454Z,0.97
2019-03-09T06:36:37.867Z,0.90
2019-03-09T06:39:08.369Z,1.30
2019-03-09T06:41:46.237Z,0.93
2019-03-09T06:44:13.991Z,1.20
2019-03-09T06:46:41.717Z,1.37
2019-03-09T06:49:09.422Z,1.60
2019-03-09T06:51:37.149Z,1.20
2019-03-09T06:54:04.972Z,1.77
2019-03-09T06:56:32.690Z,2.40
2019-03-09T06:59:00.390Z,1.50
2019-03-09T07:01:28.646Z,1.50
2019-03-09T07:03:56.437Z,1.27
2019-03-09T07:06:24.140Z,1.40
2019-03-09T07:08:52.302Z,2.27
2019-03-09T07:11:20.013Z,1.80
2019-03-09T07:13:52.882Z,1.60
2019-03-09T07:16:17.296Z,1.47
2019-03-09T07:18:44.986Z,1.90
2019-03-09T07:21:12.718Z,1.37
2019-03-09T07:23:40.450Z,1.60
2019-03-09T07:26:08.126Z,1.90
2019-03-09T07:28:35.868Z,2.87
2019-03-09T07:31:03.639Z,2.40
2019-03-09T07:33:31.459Z,1.37
2019-03-09T07:35:59.366Z,1.50
2019-03-09T07:38:27.307Z,1.30
2019-03-09T07:40:55.030Z,1.20
2019-03-09T07:43:22.742Z,1.17
2019-03-09T07:45:50.919Z,1.30
2019-03-09T07:48:18.653Z,1.10
2019-03-09T07:50:46.357Z,1.43
2019-03-09T07:53:14.049Z,1.40
2019-03-09T07:55:41.762Z,1.17
2019-03-09T07:58:09.834Z,1.47
2019-03-09T08:00:37.532Z,1.50
2019-03-09T08:03:05.387Z,2.33
2019-03-09T08:05:33.166Z,1.90
2019-03-09T08:08:00.810Z,1.83
2019-03-09T08:10:30.252Z,1.37
2019-03-09T08:12:58.262Z,0.97
2019-03-09T08:15:26.008Z,1.70
2019-03-09T08:17:55.774Z,1.90
2019-03-09T08:20:23.466Z,2.97
2019-03-09T08:22:51.178Z,2.20
2019-03-09T08:25:18.929Z,2.17
2019-03-09T08:27:46.656Z,1.07
2019-03-09T08:30:16.146Z,1.30
2019-03-09T08:32:43.838Z,1.20
2019-03-09T08:35:11.625Z,1.30
2019-03-09T08:37:39.753Z,0.60
2019-03-09T08:40:08.744Z,1.23
2019-03-09T08:42:36.417Z,1.20
2019-03-09T08:45:04.304Z,1.13
2019-03-09T08:47:32.044Z,1.27
2019-03-09T08:49:59.761Z,0.80
2019-03-09T08:52:27.832Z,1.63
2019-03-09T08:54:55.622Z,1.27
2019-03-09T08:57:23.365Z,1.17
2019-03-09T08:59:51.541Z,1.00
2019-03-09T09:02:19.348Z,0.90
2019-03-09T09:04:47.021Z,1.30
2019-03-09T09:07:14.774Z,1.70
2019-03-09T09:09:45.937Z,1.37
2019-03-09T09:12:13.657Z,1.80
2019-03-09T09:14:41.395Z,1.07
2019-03-09T09:17:09.150Z,1.50
2019-03-09T09:19:36.865Z,1.00
2019-03-09T09:22:06.703Z,1.73
2019-03-09T09:24:34.186Z,1.13
2019-03-09T09:27:02.235Z,1.00
2019-03-09T09:29:29.919Z,2.43
2019-03-09T09:31:57.671Z,1.30
2019-03-09T09:34:25.377Z,1.40
2019-03-09T09:36:53.096Z,1.07
2019-03-09T09:39:22.049Z,1.17
2019-03-09T09:41:49.754Z,1.73
2019-03-09T09:44:17.449Z,1.70
2019-03-09T09:46:45.144Z,1.47
2019-03-09T09:49:13.245Z,1.70
2019-03-09T09:51:40.933Z,1.70
2019-03-09T09:54:08.639Z,1.50
2019-03-09T09:56:36.347Z,1.57
2019-03-09T09:59:04.035Z,1.27
2019-03-09T10:01:31.782Z,1.13
2019-03-09T10:04:04.801Z,1.67
2019-03-09T10:06:32.935Z,1.60
2019-03-09T10:09:01.087Z,1.47
2019-03-09T10:11:28.783Z,1.50
2019-03-09T10:13:56.510Z,1.40
2019-03-09T10:16:24.206Z,1.40
2019-03-09T10:18:52.342Z,1.30
2019-03-09T10:21:20.092Z,1.77
2019-03-09T10:23:47.794Z,1.75
2019-03-09T10:26:16.474Z,1.47
2019-03-09T10:28:44.542Z,1.57
2019-03-09T10:31:24.626Z,2.13
2019-03-09T10:33:52.312Z,1.93
2019-03-09T10:36:20.014Z,1.57
2019-03-09T10:38:47.767Z,1.17
2019-03-09T10:41:15.550Z,1.20
2019-03-09T10:43:43.692Z,1.33
2019-03-09T10:46:11.574Z,1.50
2019-03-09T10:48:39.316Z,1.47
2019-03-09T10:51:07.734Z,1.37
2019-03-09T10:53:35.499Z,1.30
2019-03-09T10:56:05.936Z,1.50
2019-03-09T10:58:33.667Z,1.50
2019-03-09T11:01:01.732Z,1.17
2019-03-09T11:03:29.828Z,1.73
2019-03-09T11:05:57.678Z,2.10
2019-03-09T11:08:25.785Z,2.20
2019-03-09T11:11:07.726Z,2.60
2019-03-09T11:13:52.191Z,2.83
2019-03-09T11:16:30.322Z,2.17
2019-03-09T11:19:10.887Z,2.03
2019-03-09T11:21:55.460Z,2.10
2019-03-09T11:24:46.752Z,2.00
2019-03-09T11:27:23.009Z,1.90
2019-03-09T11:30:01.268Z,2.10
2019-03-09T11:32:37.783Z,2.33
2019-03-09T11:35:15.525Z,2.17
2019-03-09T11:37:54.902Z,1.80
2019-03-09T11:40:23.127Z,2.20
2019-03-09T11:42:51.189Z,2.63
2019-03-09T11:45:19.430Z,2.43
2019-03-09T11:47:47.130Z,3.20
2019-03-09T11:50:15.174Z,3.60
2019-03-09T11:52:43.004Z,3.70
2019-03-09T11:55:11.034Z,2.67
2019-03-09T11:57:38.765Z,2.60
2019-03-09T12:00:08.030Z,2.13
2019-03-09T12:02:39.158Z,1.90
2019-03-09T12:05:05.711Z,1.93
2019-03-09T12:07:33.403Z,1.70
2019-03-09T12:10:01.126Z,2.40
2019-03-09T12:12:28.847Z,2.50
2019-03-09T12:14:56.614Z,2.10
2019-03-09T12:17:24.348Z,1.47
2019-03-09T12:19:52.054Z,1.87
2019-03-09T12:22:19.790Z,1.80
2019-03-09T12:24:51.611Z,1.03
2019-03-09T12:27:19.244Z,1.57
2019-03-09T12:29:46.932Z,1.50
2019-03-09T12:32:14.639Z,1.90
2019-03-09T12:34:42.382Z,1.80
2019-03-09T12:37:10.120Z,2.20
2019-03-09T12:39:37.861Z,1.87
2019-03-09T12:42:06.034Z,1.53
2019-03-09T12:44:34.184Z,2.00
2019-03-09T12:47:01.917Z,1.30
2019-03-09T12:49:29.697Z,0.93
2019-03-09T12:51:57.439Z,1.60
2019-03-09T12:54:25.515Z,1.30
2019-03-09T12:56:53.334Z,1.50
2019-03-09T12:59:21.084Z,1.70
2019-03-09T13:01:48.806Z,1.30
2019-03-09T13:04:16.553Z,1.37
2019-03-09T13:06:44.277Z,1.63
2019-03-09T13:09:12.444Z,1.40
2019-03-09T13:11:40.203Z,1.33
2019-03-09T13:14:08.058Z,1.10
2019-03-09T13:16:35.809Z,1.10
2019-03-09T13:19:03.634Z,1.37
2019-03-09T13:21:31.388Z,1.40
2019-03-09T13:23:59.162Z,1.20
2019-03-09T13:26:26.929Z,3.00
2019-03-09T13:28:55.958Z,1.53
2019-03-09T13:31:23.717Z,1.30
2019-03-09T13:33:51.534Z,1.30
2019-03-09T13:36:19.344Z,1.20
2019-03-09T13:38:47.773Z,1.30
2019-03-09T13:41:15.950Z,1.10
2019-03-09T13:43:44.131Z,1.40
2019-03-09T13:46:12.213Z,1.20
2019-03-09T13:48:40.577Z,1.13
2019-03-09T13:51:08.480Z,1.10
2019-03-09T13:53:36.625Z,1.10
2019-03-09T13:56:04.492Z,1.20
2019-03-09T13:58:41.837Z,1.10
2019-03-09T14:01:19.703Z,1.30
2019-03-09T14:03:58.975Z,1.00
2019-03-09T14:06:39.919Z,1.07
2019-03-09T14:09:18.061Z,1.40
2019-03-09T14:11:55.113Z,1.23
2019-03-09T14:14:33.387Z,1.43
2019-03-09T14:17:10.030Z,1.00
2019-03-09T14:19:46.542Z,1.10
2019-03-09T14:22:25.422Z,1.00
2019-03-09T14:24:53.989Z,1.00
2019-03-09T14:27:22.754Z,1.30
2019-03-09T14:29:50.737Z,0.90
2019-03-09T14:32:18.639Z,1.20
2019-03-09T14:34:46.724Z,0.87
2019-03-09T14:37:14.663Z,1.20
2019-03-09T14:39:42.456Z,1.30
2019-03-09T14:42:10.573Z,0.80
2019-03-09T14:44:39.000Z,0.40
2019-03-09T14:47:06.755Z,0.80
2019-03-09T14:49:34.645Z,0.70
2019-03-09T14:52:02.366Z,0.97
2019-03-09T14:54:32.926Z,0.80
2019-03-09T14:57:00.993Z,0.90
2019-03-09T14:59:28.719Z,0.50
2019-03-09T15:01:56.398Z,0.50
2019-03-09T15:04:24.127Z,0.83
2019-03-09T15:06:51.838Z,0.93
2019-03-09T15:09:19.493Z,0.70
2019-03-09T15:11:47.193Z,1.20
2019-03-09T15:14:14.914Z,1.00
2019-03-09T15:16:42.640Z,0.90
2019-03-09T15:19:10.334Z,1.00
2019-03-09T15:21:38.006Z,0.80
2019-03-09T15:24:05.790Z,1.00
2019-03-09T15:26:33.496Z,1.20
2019-03-09T15:29:01.271Z,1.00
2019-03-09T15:31:29.383Z,1.27
2019-03-09T15:33:57.079Z,1.50
2019-03-09T15:36:24.775Z,0.73
2019-03-09T15:38:52.462Z,0.60
2019-03-09T15:41:20.412Z,1.33
2019-03-09T15:43:48.105Z,1.40
2019-03-09T15:46:15.899Z,1.40
2019-03-09T15:48:43.750Z,1.50
2019-03-09T15:51:11.583Z,1.50
2019-03-09T15:53:39.276Z,1.40
2019-03-09T15:56:07.084Z,1.50
2019-03-09T15:58:37.121Z,1.30
2019-03-09T16:01:06.040Z,1.20
2019-03-09T16:03:34.222Z,0.73
2019-03-09T16:06:01.961Z,0.50
2019-03-09T16:08:30.071Z,0.70
2019-03-09T16:10:57.802Z,0.60
2019-03-09T16:13:26.302Z,0.70
2019-03-09T16:15:54.789Z,1.00
2019-03-09T16:18:22.574Z,0.80
2019-03-09T16:20:50.847Z,0.80
2019-03-09T16:23:18.512Z,0.70
2019-03-09T16:25:46.249Z,1.07
2019-03-09T16:28:13.940Z,1.10
2019-03-09T16:30:41.669Z,1.43
2019-03-09T16:33:17.925Z,1.40
2019-03-09T16:36:02.163Z,1.40
2019-03-09T16:38:23.132Z,0.70
2019-03-09T16:40:51.255Z,1.00
2019-03-09T16:43:19.553Z,0.80
2019-03-09T16:45:47.670Z,0.90
2019-03-09T16:48:16.365Z,0.77
2019-03-09T16:50:44.157Z,0.50
2019-03-09T16:53:12.506Z,2.30
2019-03-09T16:55:40.342Z,0.80
2019-03-09T16:58:08.338Z,1.10
2019-03-09T17:00:36.935Z,1.30
2019-03-09T17:03:05.183Z,1.30
2019-03-09T17:05:33.067Z,2.00
2019-03-09T17:08:01.013Z,2.20
2019-03-09T17:10:29.186Z,2.33
2019-03-09T17:12:57.712Z,1.60
2019-03-09T17:15:25.469Z,1.60
2019-03-09T17:17:53.282Z,1.60
2019-03-09T17:20:21.838Z,2.00
2019-03-09T17:22:49.642Z,1.90
2019-03-09T17:25:17.727Z,1.53
2019-03-09T17:27:45.709Z,1.80
2019-03-09T17:30:15.110Z,1.90
2019-03-09T17:32:43.012Z,2.67
2019-03-09T17:35:11.229Z,3.60
2019-03-09T17:37:39.463Z,3.03
2019-03-09T17:40:10.969Z,1.80
2019-03-09T17:42:39.285Z,2.03
2019-03-09T17:45:10.898Z,2.20
2019-03-09T17:47:38.725Z,2.07
2019-03-09T17:50:07.919Z,2.70
2019-03-09T17:52:35.779Z,2.23
2019-03-09T17:55:04.516Z,2.00
2019-03-09T17:57:33.054Z,1.80
2019-03-09T18:00:01.230Z,2.13
2019-03-09T18:02:29.147Z,2.60
2019-03-09T18:04:57.012Z,2.47
2019-03-09T18:07:26.561Z,2.60
2019-03-09T18:09:54.637Z,2.87
2019-03-09T18:12:22.642Z,2.60
2019-03-09T18:14:51.796Z,2.40
2019-03-09T18:17:19.640Z,2.33
2019-03-09T18:19:47.404Z,2.33
2019-03-09T18:22:15.332Z,2.10
2019-03-09T18:24:43.249Z,2.80
2019-03-09T18:27:11.042Z,2.60
2019-03-09T18:29:38.861Z,2.43
2019-03-09T18:32:06.542Z,2.53
2019-03-09T18:34:34.635Z,2.53
2019-03-09T18:37:02.433Z,3.08
2019-03-09T18:39:30.146Z,3.07
2019-03-09T18:41:57.859Z,2.40
2019-03-09T18:44:26.009Z,1.53
2019-03-09T18:46:53.791Z,1.20
2019-03-09T18:49:21.516Z,2.20
2019-03-09T18:51:49.247Z,2.62
2019-03-09T18:54:17.011Z,1.60
2019-03-09T18:56:45.120Z,1.60
2019-03-09T18:59:13.120Z,1.93
2019-03-09T19:01:40.851Z,1.40
2019-03-09T19:04:08.904Z,1.80
2019-03-09T19:06:36.710Z,1.80
2019-03-09T19:09:08.238Z,2.40
2019-03-09T19:11:37.150Z,2.57
2019-03-09T19:14:04.965Z,2.27
2019-03-09T19:16:33.205Z,1.60
2019-03-09T19:19:00.978Z,2.10
2019-03-09T19:21:29.701Z,2.27
2019-03-09T19:23:58.026Z,2.70
2019-03-09T19:26:26.537Z,2.50
2019-03-09T19:28:54.336Z,2.57
2019-03-09T19:31:22.278Z,2.60
2019-03-09T19:33:49.980Z,2.50
2019-03-09T19:36:17.792Z,2.85
2019-03-09T19:38:45.542Z,2.07
2019-03-09T19:41:13.241Z,1.63
2019-03-09T19:43:41.375Z,2.00
2019-03-09T19:46:09.498Z,2.00
2019-03-09T19:48:37.230Z,1.93
2019-03-09T19:51:13.156Z,2.77
2019-03-09T19:53:40.857Z,2.83
2019-03-09T19:56:09.375Z,3.80
2019-03-09T19:58:37.146Z,4.10
2019-03-09T20:01:05.790Z,3.63
2019-03-09T20:03:33.487Z,2.53
2019-03-09T20:06:01.224Z,2.43
2019-03-09T20:08:30.197Z,2.37
2019-03-09T20:10:59.826Z,2.30
2019-03-09T20:13:27.603Z,2.73
2019-03-09T20:15:55.388Z,2.73
2019-03-09T20:18:23.644Z,2.67
2019-03-09T20:20:51.336Z,2.97
2019-03-09T20:23:19.481Z,3.27
2019-03-09T20:25:47.261Z,2.40
2019-03-09T20:28:15.090Z,2.10
2019-03-09T20:30:42.830Z,1.73
2019-03-09T20:33:10.548Z,1.60
2019-03-09T20:35:39.546Z,1.37
2019-03-09T20:38:07.256Z,2.03
2019-03-09T20:40:35.369Z,1.90
2019-03-09T20:43:03.479Z,1.97
2019-03-09T20:45:31.180Z,1.90
2019-03-09T20:47:58.870Z,2.10
2019-03-09T20:50:26.816Z,1.97
2019-03-09T20:52:54.511Z,1.60
2019-03-09T20:55:22.242Z,1.97
2019-03-09T20:57:51.646Z,2.30
2019-03-09T21:00:19.923Z,2.37
2019-03-09T21:02:47.674Z,1.80
2019-03-09T21:05:17.390Z,2.10
2019-03-09T21:07:45.471Z,2.30
2019-03-09T21:10:14.880Z,1.80
2019-03-09T21:12:59.907Z,2.60
2019-03-09T21:15:27.968Z,2.20
2019-03-09T21:17:56.040Z,2.57
2019-03-09T21:20:23.828Z,3.10
2019-03-09T21:22:54.113Z,2.80
2019-03-09T21:25:23.222Z,2.60
2019-03-09T21:27:50.947Z,2.23
2019-03-09T21:30:18.812Z,2.90
2019-03-09T21:32:46.995Z,2.10
2019-03-09T21:35:17.844Z,2.57
2019-03-09T21:37:45.902Z,2.60
2019-03-09T21:40:14.827Z,2.00
2019-03-09T21:42:42.738Z,2.47
2019-03-09T21:45:10.975Z,2.20
2019-03-09T21:47:38.781Z,2.07
2019-03-09T21:50:08.494Z,2.70
2019-03-09T21:52:36.279Z,2.20
2019-03-09T21:55:04.274Z,1.93
2019-03-09T21:57:32.035Z,2.03
2019-03-09T21:59:59.744Z,2.17
2019-03-09T22:02:27.418Z,2.00
2019-03-09T22:04:55.131Z,2.10
2019-03-09T22:07:22.895Z,1.63
2019-03-09T22:09:50.624Z,1.87
2019-03-09T22:12:20.600Z,1.97
2019-03-09T22:14:48.288Z,2.00
2019-03-09T22:17:16.160Z,1.80
2019-03-09T22:19:44.028Z,2.00
2019-03-09T22:22:11.678Z,2.07
2019-03-09T22:24:39.401Z,1.80
2019-03-09T22:27:07.109Z,2.93
2019-03-09T22:29:34.819Z,2.57
2019-03-09T22:32:02.554Z,2.30
2019-03-09T22:34:30.232Z,2.30
2019-03-09T22:36:57.976Z,2.77
2019-03-09T22:39:25.755Z,3.20
2019-03-09T22:41:53.451Z,2.30
2019-03-09T22:44:21.167Z,2.30
2019-03-09T22:46:48.839Z,2.57
2019-03-09T22:49:16.556Z,2.67
2019-03-09T22:51:44.535Z,2.63
2019-03-09T22:54:12.642Z,2.37
2019-03-09T22:56:40.363Z,1.67
2019-03-09T22:59:08.082Z,1.63
2019-03-09T23:01:35.847Z,1.40
2019-03-09T23:04:03.572Z,1.30
2019-03-09T23:06:31.280Z,1.40
2019-03-09T23:08:58.990Z,1.43
2019-03-09T23:11:26.783Z,1.27
2019-03-09T23:13:54.515Z,1.63
2019-03-09T23:16:22.232Z,1.10
2019-03-09T23:18:49.951Z,1.30
2019-03-09T23:21:18.049Z,1.50
2019-03-09T23:23:46.131Z,1.33
2019-03-09T23:26:13.959Z,1.90
2019-03-09T23:28:46.418Z,1.53
2019-03-09T23:31:14.559Z,2.50
2019-03-09T23:33:42.267Z,2.43
2019-03-09T23:36:09.967Z,2.77
2019-03-09T23:38:37.917Z,2.77
2019-03-09T23:41:05.704Z,1.90
2019-03-09T23:43:33.402Z,2.93
2019-03-09T23:46:01.141Z,1.70
2019-03-09T23:48:28.887Z,1.77
2019-03-09T23:50:56.623Z,2.00
2019-03-09T23:53:24.427Z,2.10
2019-03-09T23:55:52.110Z,1.97
2019-03-09T23:58:19.798Z,2.33
